Wetterstation Vordersexau
Wetterdaten: Woche 25.09.17 - 01.10.17 (KW39)
Datum Zeit Temp. A. Feuchte A. Luftdruck Regen Wind Richtung Taupunkt Windchill Windben
25.09.2017 00:00 9,4 C 83 % 1017,9 hPa 0,0 l/m 0,0 km/h N-NO 6,7 C 9,4 C 0,0 km/h
25.09.2017 01:00 7,3 C 83 % 1017,6 hPa 0,0 l/m 0,0 km/h N-NO 4,6 C 7,3 C 0,0 km/h
25.09.2017 02:00 8,1 C 83 % 1017,6 hPa 0,0 l/m 0,0 km/h N-NO 5,4 C 8,1 C 0,0 km/h
25.09.2017 03:00 6,9 C 83 % 1017,3 hPa 0,0 l/m 0,0 km/h N-NO 4,2 C 6,9 C 0,0 km/h
25.09.2017 04:00 5,9 C 83 % 1017,3 hPa 0,0 l/m 0,0 km/h N-NO 3,2 C 5,9 C 0,0 km/h
25.09.2017 05:00 8,1 C 82 % 1017,1 hPa 0,0 l/m 0,0 km/h O-NO 5,2 C 8,1 C 0,0 km/h
25.09.2017 06:00 7,9 C 81 % 1017,1 hPa 0,0 l/m 0,0 km/h NO 4,8 C 7,9 C 0,0 km/h
25.09.2017 07:00 7,8 C 80 % 1017,4 hPa 0,0 l/m 0,0 km/h NO 4,6 C 7,8 C 0,0 km/h
25.09.2017 08:00 9,6 C 77 % 1017,3 hPa 0,0 l/m 0,0 km/h N-NO 5,8 C 9,6 C 0,0 km/h
25.09.2017 09:00 10,8 C 77 % 1017,1 hPa 0,0 l/m 0,0 km/h W 6,9 C 10,8 C 0,0 km/h
25.09.2017 10:00 12,4 C 79 % 1017,1 hPa 0,0 l/m 0,0 km/h NW 8,9 C 12,4 C 0,0 km/h
25.09.2017 11:00 14,4 C 83 % 1016,8 hPa 0,0 l/m 0,0 km/h N 11,5 C 14,4 C 0,0 km/h
25.09.2017 12:00 17,8 C 74 % 1016,6 hPa 0,0 l/m 0,0 km/h W 13,1 C 17,8 C 0,0 km/h
25.09.2017 13:00 20,7 C 62 % 1016,0 hPa 0,0 l/m 0,0 km/h NW 13,2 C 20,7 C 0,0 km/h
25.09.2017 14:00 23,3 C 57 % 1016,0 hPa 0,0 l/m 0,0 km/h SW 14,3 C 23,3 C 0,0 km/h
25.09.2017 15:00 27,1 C 48 % 1015,3 hPa 0,0 l/m 0,0 km/h W-SW 15,1 C 27,1 C 0,0 km/h
25.09.2017 16:00 28,4 C 45 % 1015,1 hPa 0,0 l/m 0,0 km/h W 15,3 C 28,4 C 0,0 km/h
25.09.2017 17:00 27,2 C 46 % 1015,3 hPa 0,0 l/m 0,0 km/h W 14,6 C 27,2 C 0,0 km/h
25.09.2017 18:00 21,4 C 56 % 1015,7 hPa 0,0 l/m 0,0 km/h W 12,3 C 21,4 C 0,0 km/h
25.09.2017 19:00 13,9 C 73 % 1016,3 hPa 0,0 l/m 0,0 km/h W 9,1 C 13,9 C 0,0 km/h
25.09.2017 20:00 12,6 C 80 % 1016,6 hPa 0,0 l/m 0,0 km/h W 9,2 C 12,6 C 0,0 km/h
25.09.2017 21:00 10,5 C 82 % 1016,7 hPa 0,0 l/m 0,0 km/h W 7,6 C 10,5 C 0,0 km/h
25.09.2017 22:00 10,3 C 83 % 1017,1 hPa 0,0 l/m 0,0 km/h W 7,5 C 10,3 C 0,0 km/h
25.09.2017 23:00 10,1 C 83 % 1017,4 hPa 0,0 l/m 0,0 km/h W 7,3 C 10,1 C 0,0 km/h
26.09.2017 00:00 9,6 C 83 % 1017,1 hPa 0,0 l/m 0,0 km/h W 6,9 C 9,6 C 0,0 km/h
26.09.2017 01:00 8,7 C 83 % 1017,2 hPa 0,0 l/m 0,0 km/h W 6,0 C 8,7 C 0,0 km/h
26.09.2017 02:00 8,5 C 82 % 1017,3 hPa 0,0 l/m 0,0 km/h W 5,6 C 8,5 C 0,0 km/h
26.09.2017 03:00 8,1 C 81 % 1017,4 hPa 0,0 l/m 0,0 km/h W 5,0 C 8,1 C 0,0 km/h
26.09.2017 04:00 7,6 C 81 % 1017,5 hPa 0,0 l/m 0,0 km/h W 4,6 C 7,6 C 0,0 km/h
26.09.2017 05:00 7,3 C 80 % 1017,7 hPa 0,0 l/m 0,0 km/h W 4,1 C 7,3 C 0,0 km/h
26.09.2017 06:00 7,3 C 79 % 1017,8 hPa 0,0 l/m 0,0 km/h W 3,9 C 7,3 C 0,0 km/h
26.09.2017 07:00 7,3 C 79 % 1018,3 hPa 0,0 l/m 0,0 km/h W-NW 3,9 C 7,3 C 0,0 km/h
26.09.2017 08:00 10,1 C 68 % 1018,2 hPa 0,0 l/m 0,0 km/h S 4,5 C 10,1 C 0,0 km/h
26.09.2017 09:00 14,7 C 81 % 1018,8 hPa 0,0 l/m 0,0 km/h W 11,5 C 14,7 C 0,0 km/h
26.09.2017 10:00 19,4 C 72 % 1019,0 hPa 0,0 l/m 0,0 km/h N 14,2 C 19,4 C 0,0 km/h
26.09.2017 11:00 21,4 C 63 % 1018,8 hPa 0,0 l/m 0,0 km/h S-SW 14,1 C 21,4 C 0,0 km/h
26.09.2017 12:00 23,1 C 57 % 1018,2 hPa 0,0 l/m 0,0 km/h W 14,1 C 23,1 C 0,0 km/h
26.09.2017 13:00 24,4 C 54 % 1018,0 hPa 0,0 l/m 0,0 km/h W-SW 14,5 C 24,4 C 0,0 km/h
26.09.2017 14:00 24,5 C 52 % 1017,7 hPa 0,0 l/m 0,0 km/h SW 14,0 C 24,5 C 0,0 km/h
26.09.2017 15:00 25,9 C 47 % 1017,8 hPa 0,0 l/m 0,0 km/h W 13,7 C 25,9 C 0,0 km/h
26.09.2017 16:00 28,2 C 40 % 1017,9 hPa 0,0 l/m 0,0 km/h W 13,3 C 28,2 C 0,0 km/h
26.09.2017 17:00 26,4 C 42 % 1018,0 hPa 0,0 l/m 0,0 km/h W 12,4 C 26,4 C 0,0 km/h
26.09.2017 18:00 17,3 C 64 % 1018,3 hPa 0,0 l/m 0,0 km/h O-SO 10,4 C 17,3 C 0,0 km/h
26.09.2017 19:00 15,8 C 73 % 1018,8 hPa 0,0 l/m 0,0 km/h O-SO 11,0 C 15,8 C 0,0 km/h
26.09.2017 20:00 14,6 C 77 % 1019,5 hPa 0,0 l/m 0,0 km/h O-SO 10,6 C 14,6 C 0,0 km/h
26.09.2017 21:00 14,1 C 79 % 1019,7 hPa 0,0 l/m 0,0 km/h O-SO 10,5 C 14,1 C 0,0 km/h
26.09.2017 22:00 13,9 C 81 % 1019,8 hPa 0,0 l/m 0,0 km/h O-SO 10,7 C 13,9 C 0,0 km/h
26.09.2017 23:00 13,4 C 82 % 1019,9 hPa 0,0 l/m 0,0 km/h SO 10,4 C 13,4 C 0,0 km/h
27.09.2017 00:00 13,1 C 83 % 1019,6 hPa 0,0 l/m 0,0 km/h SO 10,3 C 13,1 C 0,0 km/h
27.09.2017 01:00 11,9 C 83 % 1019,8 hPa 0,0 l/m 0,0 km/h SO 9,1 C 11,9 C 0,0 km/h
27.09.2017 02:00 12,2 C 83 % 1019,4 hPa 0,0 l/m 0,0 km/h O-SO 9,4 C 12,2 C 0,0 km/h
27.09.2017 03:00 11,8 C 83 % 1019,5 hPa 0,0 l/m 0,0 km/h O-SO 9,0 C 11,8 C 0,0 km/h
27.09.2017 04:00 10,4 C 82 % 1019,8 hPa 0,0 l/m 0,0 km/h O-SO 7,5 C 10,4 C 0,0 km/h
27.09.2017 05:00 10,6 C 82 % 1019,7 hPa 0,0 l/m 0,0 km/h O-SO 7,7 C 10,6 C 0,0 km/h
27.09.2017 06:00 10,5 C 81 % 1020,1 hPa 0,0 l/m 0,0 km/h O-SO 7,4 C 10,5 C 0,0 km/h
27.09.2017 07:00 10,9 C 80 % 1020,3 hPa 0,0 l/m 0,0 km/h O-SO 7,6 C 10,9 C 0,0 km/h
27.09.2017 08:00 12,0 C 80 % 1020,6 hPa 0,0 l/m 0,0 km/h O-SO 8,7 C 12,0 C 0,0 km/h
27.09.2017 09:00 15,0 C 82 % 1020,8 hPa 0,0 l/m 0,0 km/h W-NW 12,0 C 15,0 C 0,0 km/h
27.09.2017 10:00 18,6 C 74 % 1020,9 hPa 0,0 l/m 0,0 km/h N-NW 13,9 C 18,6 C 0,0 km/h
27.09.2017 11:00 21,6 C 66 % 1020,8 hPa 0,0 l/m 0,0 km/h N-NO 15,0 C 21,6 C 0,0 km/h
27.09.2017 12:00 23,8 C 58 % 1020,6 hPa 0,0 l/m 0,0 km/h N 15,0 C 23,8 C 0,0 km/h
27.09.2017 13:00 24,4 C 54 % 1020,1 hPa 0,0 l/m 18,8 km/h W-SW 14,5 C 22,0 C 10,4 km/h
27.09.2017 14:00 25,9 C 50 % 1019,5 hPa 0,0 l/m 0,0 km/h W 14,7 C 25,9 C 0,0 km/h
27.09.2017 15:00 27,6 C 47 % 1019,3 hPa 0,0 l/m 0,0 km/h N 15,3 C 27,6 C 0,0 km/h
27.09.2017 16:00 29,9 C 41 % 1019,0 hPa 0,0 l/m 0,0 km/h N 15,2 C 29,9 C 0,0 km/h
27.09.2017 17:00 25,9 C 45 % 1019,0 hPa 0,0 l/m 0,0 km/h O 13,0 C 25,9 C 0,0 km/h
27.09.2017 18:00 17,9 C 68 % 1019,3 hPa 0,0 l/m 0,0 km/h O 11,9 C 17,9 C 0,0 km/h
27.09.2017 19:00 15,8 C 75 % 1019,6 hPa 0,0 l/m 0,0 km/h O 11,4 C 15,8 C 0,0 km/h
27.09.2017 20:00 14,8 C 79 % 1019,8 hPa 0,0 l/m 0,0 km/h O-SO 11,2 C 14,8 C 0,0 km/h
27.09.2017 21:00 14,3 C 81 % 1020,4 hPa 0,0 l/m 0,0 km/h O-SO 11,1 C 14,3 C 0,0 km/h
27.09.2017 22:00 13,5 C 82 % 1020,5 hPa 0,0 l/m 0,0 km/h O 10,5 C 13,5 C 0,0 km/h
27.09.2017 23:00 12,9 C 83 % 1020,2 hPa 0,0 l/m 0,0 km/h O 10,1 C 12,9 C 0,0 km/h
28.09.2017 00:00 12,2 C 83 % 1020,4 hPa 0,0 l/m 0,0 km/h O 9,4 C 12,2 C 0,0 km/h
28.09.2017 01:00 11,3 C 83 % 1020,6 hPa 0,0 l/m 0,0 km/h O-SO 8,5 C 11,3 C 0,0 km/h
28.09.2017 02:00 10,9 C 83 % 1020,6 hPa 0,0 l/m 0,0 km/h O-SO 8,1 C 10,9 C 0,0 km/h
28.09.2017 03:00 10,6 C 82 % 1020,6 hPa 0,0 l/m 0,0 km/h O-SO 7,7 C 10,6 C 0,0 km/h
28.09.2017 04:00 10,8 C 81 % 1020,9 hPa 0,0 l/m 0,0 km/h O-SO 7,7 C 10,8 C 0,0 km/h
28.09.2017 05:00 10,4 C 80 % 1021,0 hPa 0,0 l/m 0,0 km/h O-SO 7,1 C 10,4 C 0,0 km/h
28.09.2017 06:00 10,3 C 80 % 1021,0 hPa 0,0 l/m 0,0 km/h O-SO 7,0 C 10,3 C 0,0 km/h
28.09.2017 07:00 10,8 C 79 % 1021,4 hPa 0,0 l/m 0,0 km/h O 7,3 C 10,8 C 0,0 km/h
28.09.2017 08:00 12,6 C 76 % 1021,9 hPa 0,0 l/m 0,0 km/h O-SO 8,5 C 12,6 C 0,0 km/h
28.09.2017 09:00 15,6 C 80 % 1022,2 hPa 0,0 l/m 0,0 km/h O-SO 12,2 C 15,6 C 0,0 km/h
28.09.2017 10:00 21,5 C 76 % 1021,9 hPa 0,0 l/m 0,0 km/h W 17,1 C 21,5 C 0,0 km/h
28.09.2017 11:00 22,1 C 64 % 1021,5 hPa 0,0 l/m 0,0 km/h SW 15,0 C 22,1 C 0,0 km/h
28.09.2017 12:00 24,6 C 51 % 1021,4 hPa 0,0 l/m 9,7 km/h W 13,8 C 23,8 C 5,4 km/h
28.09.2017 13:00 25,8 C 48 % 1021,5 hPa 0,0 l/m 7,1 km/h W-SW 13,9 C 25,6 C 4,0 km/h
28.09.2017 14:00 27,6 C 43 % 1021,3 hPa 0,0 l/m 9,7 km/h W 13,9 C 27,1 C 5,4 km/h
28.09.2017 15:00 27,4 C 41 % 1021,4 hPa 0,0 l/m 2,6 km/h W-SW 13,0 C 27,4 C 1,4 km/h
28.09.2017 16:00 25,6 C 41 % 1020,9 hPa 0,0 l/m 1,3 km/h O-SO 11,4 C 25,6 C 0,7 km/h
28.09.2017 17:00 22,3 C 53 % 1021,1 hPa 0,0 l/m 0,0 km/h O-SO 12,2 C 22,3 C 0,0 km/h
28.09.2017 18:00 21,3 C 60 % 1021,3 hPa 0,0 l/m 0,0 km/h O-SO 13,2 C 21,3 C 0,0 km/h
28.09.2017 19:00 16,4 C 70 % 1021,5 hPa 0,0 l/m 0,0 km/h SO 10,9 C 16,4 C 0,0 km/h
28.09.2017 20:00 14,9 C 77 % 1021,9 hPa 0,0 l/m 0,0 km/h O-SO 10,9 C 14,9 C 0,0 km/h
28.09.2017 21:00 14,5 C 79 % 1022,0 hPa 0,0 l/m 0,0 km/h O-SO 10,9 C 14,5 C 0,0 km/h
28.09.2017 22:00 14,3 C 80 % 1021,8 hPa 0,0 l/m 0,0 km/h O-SO 10,9 C 14,3 C 0,0 km/h
28.09.2017 23:00 13,3 C 82 % 1021,8 hPa 0,0 l/m 0,0 km/h SO 10,3 C 13,3 C 0,0 km/h
29.09.2017 00:00 13,1 C 82 % 1021,7 hPa 0,0 l/m 0,0 km/h O-SO 10,1 C 13,1 C 0,0 km/h
29.09.2017 01:00 13,4 C 83 % 1021,1 hPa 0,0 l/m 0,0 km/h SO 10,6 C 13,4 C 0,0 km/h
29.09.2017 02:00 13,6 C 82 % 1021,1 hPa 0,0 l/m 0,0 km/h SO 10,6 C 13,6 C 0,0 km/h
29.09.2017 03:00 13,6 C 83 % 1020,9 hPa 0,0 l/m 0,0 km/h SO 10,8 C 13,6 C 0,0 km/h
29.09.2017 04:00 13,7 C 83 % 1020,6 hPa 0,0 l/m 0,0 km/h SO 10,9 C 13,7 C 0,0 km/h
29.09.2017 05:00 13,2 C 83 % 1020,7 hPa 0,0 l/m 0,0 km/h O-SO 10,4 C 13,2 C 0,0 km/h
29.09.2017 06:00 13,6 C 83 % 1020,5 hPa 0,0 l/m 0,0 km/h O-SO 10,8 C 13,6 C 0,0 km/h
29.09.2017 07:00 13,6 C 83 % 1020,7 hPa 0,0 l/m 0,0 km/h SO 10,8 C 13,6 C 0,0 km/h
29.09.2017 08:00 15,1 C 83 % 1021,2 hPa 0,0 l/m 0,0 km/h SO 12,2 C 15,1 C 0,0 km/h
29.09.2017 09:00 17,1 C 82 % 1021,0 hPa 0,0 l/m 0,0 km/h S 14,0 C 17,1 C 0,0 km/h
29.09.2017 10:00 20,5 C 75 % 1020,9 hPa 0,0 l/m 0,0 km/h N-NO 15,9 C 20,5 C 0,0 km/h
29.09.2017 11:00 22,8 C 66 % 1020,3 hPa 0,0 l/m 0,0 km/h W 16,1 C 22,8 C 0,0 km/h
29.09.2017 12:00 23,9 C 59 % 1019,9 hPa 0,0 l/m 0,0 km/h O-SO 15,4 C 23,9 C 0,0 km/h
29.09.2017 13:00 28,7 C 52 % 1019,4 hPa 0,0 l/m 0,0 km/h S-SO 17,8 C 28,7 C 0,0 km/h
29.09.2017 14:00 30,5 C 44 % 1018,4 hPa 0,0 l/m 0,0 km/h W 16,8 C 30,5 C 0,0 km/h
29.09.2017 15:00 31,7 C 40 % 1018,0 hPa 0,0 l/m 0,0 km/h N 16,4 C 31,7 C 0,0 km/h
29.09.2017 16:00 31,4 C 40 % 1017,7 hPa 0,0 l/m 0,0 km/h N-NW 16,1 C 31,4 C 0,0 km/h
29.09.2017 17:00 26,6 C 54 % 1017,4 hPa 0,0 l/m 0,0 km/h N-NW 16,5 C 26,6 C 0,0 km/h
29.09.2017 18:00 21,5 C 64 % 1017,6 hPa 0,0 l/m 0,0 km/h N-NW 14,4 C 21,5 C 0,0 km/h
29.09.2017 19:00 18,1 C 73 % 1017,6 hPa 0,0 l/m 0,0 km/h N 13,2 C 18,1 C 0,0 km/h
29.09.2017 20:00 17,1 C 78 % 1017,4 hPa 0,0 l/m 0,0 km/h N-NO 13,2 C 17,1 C 0,0 km/h
29.09.2017 21:00 15,9 C 81 % 1017,4 hPa 0,0 l/m 0,0 km/h N-NO 12,6 C 15,9 C 0,0 km/h
29.09.2017 22:00 15,9 C 82 % 1017,2 hPa 0,0 l/m 0,0 km/h N-NO 12,8 C 15,9 C 0,0 km/h
29.09.2017 23:00 15,6 C 82 % 1016,8 hPa 0,0 l/m 0,0 km/h O-NO 12,5 C 15,6 C 0,0 km/h
30.09.2017 00:00 14,5 C 83 % 1016,5 hPa 0,0 l/m 0,0 km/h O-NO 11,6 C 14,5 C 0,0 km/h
30.09.2017 01:00 14,2 C 83 % 1015,9 hPa 0,0 l/m 0,0 km/h O-SO 11,4 C 14,2 C 0,0 km/h
30.09.2017 02:00 14,1 C 82 % 1016,0 hPa 0,0 l/m 0,0 km/h O-SO 11,1 C 14,1 C 0,0 km/h
30.09.2017 03:00 13,3 C 82 % 1015,3 hPa 0,0 l/m 0,0 km/h O-NO 10,3 C 13,3 C 0,0 km/h
30.09.2017 04:00 13,0 C 82 % 1015,4 hPa 0,0 l/m 0,0 km/h O-SO 10,0 C 13,0 C 0,0 km/h
30.09.2017 05:00 12,5 C 81 % 1014,9 hPa 0,0 l/m 0,0 km/h O-NO 9,3 C 12,5 C 0,0 km/h
30.09.2017 06:00 12,5 C 80 % 1014,8 hPa 0,0 l/m 0,0 km/h N-NO 9,1 C 12,5 C 0,0 km/h
30.09.2017 07:00 12,1 C 79 % 1014,8 hPa 0,0 l/m 3,2 km/h O-SO 8,6 C 12,1 C 1,8 km/h
30.09.2017 08:00 14,9 C 74 % 1014,7 hPa 0,0 l/m 0,0 km/h O 10,3 C 14,9 C 0,0 km/h
30.09.2017 09:00 20,0 C 80 % 1014,5 hPa 0,0 l/m 0,0 km/h W-SW 16,4 C 20,0 C 0,0 km/h
30.09.2017 10:00 26,6 C 56 % 1014,2 hPa 0,0 l/m 0,0 km/h W-SW 17,1 C 26,6 C 0,0 km/h
30.09.2017 11:00 22,1 C 55 % 1014,1 hPa 0,0 l/m 18,1 km/h S 12,6 C 19,2 C 10,1 km/h
30.09.2017 12:00 23,1 C 56 % 1013,8 hPa 0,0 l/m 0,6 km/h W 13,8 C 23,1 C 0,4 km/h
30.09.2017 13:00 21,2 C 60 % 1013,5 hPa 0,0 l/m 5,2 km/h W-SW 13,1 C 21,2 C 2,9 km/h
30.09.2017 14:00 20,9 C 62 % 1013,5 hPa 0,0 l/m 2,6 km/h W-SW 13,3 C 20,9 C 1,4 km/h
30.09.2017 15:00 20,3 C 65 % 1014,0 hPa 0,0 l/m 3,2 km/h N 13,5 C 20,3 C 1,8 km/h
30.09.2017 16:00 14,3 C 77 % 1015,1 hPa 0,0 l/m 31,8 km/h N-NO 10,3 C 6,4 C 17,6 km/h
30.09.2017 17:00 12,9 C 81 % 1015,9 hPa 1,6 l/m 0,0 km/h N-NO 9,7 C 12,9 C 0,0 km/h
30.09.2017 18:00 12,7 C 83 % 1016,6 hPa 0,5 l/m 0,0 km/h N-NO 9,9 C 12,7 C 0,0 km/h
30.09.2017 19:00 12,1 C 83 % 1017,2 hPa 1,0 l/m 0,0 km/h O-NO 9,3 C 12,1 C 0,0 km/h
30.09.2017 20:00 11,6 C 83 % 1018,1 hPa 0,5 l/m 0,0 km/h SO 8,8 C 11,6 C 0,0 km/h
30.09.2017 21:00 11,3 C 81 % 1018,5 hPa 0,5 l/m 0,0 km/h O-SO 8,2 C 11,3 C 0,0 km/h
30.09.2017 22:00 11,2 C 80 % 1018,9 hPa 0,0 l/m 0,0 km/h O-SO 7,9 C 11,2 C 0,0 km/h
30.09.2017 23:00 11,2 C 79 % 1018,9 hPa 0,0 l/m 0,0 km/h O-SO 7,7 C 11,2 C 0,0 km/h
01.10.2017 00:00 11,3 C 79 % 1018,8 hPa 0,0 l/m 0,0 km/h O-SO 7,8 C 11,3 C 0,0 km/h
01.10.2017 01:00 11,3 C 79 % 1018,9 hPa 0,0 l/m 0,0 km/h O-SO 7,8 C 11,3 C 0,0 km/h
01.10.2017 02:00 10,9 C 79 % 1019,1 hPa 0,0 l/m 0,0 km/h S-SW 7,4 C 10,9 C 0,0 km/h
01.10.2017 03:00 11,1 C 78 % 1019,3 hPa 0,0 l/m 0,0 km/h SW 7,4 C 11,1 C 0,0 km/h
01.10.2017 04:00 10,4 C 79 % 1019,5 hPa 0,0 l/m 0,0 km/h N-NW 6,9 C 10,4 C 0,0 km/h
01.10.2017 05:00 17,9 C 71 % 1020,4 hPa 0,0 l/m 0,0 km/h W-NW 12,6 C 17,9 C 0,0 km/h
01.10.2017 06:00 21,6 C 61 % 1019,7 hPa 0,0 l/m 0,0 km/h W 13,7 C 21,6 C 0,0 km/h
01.10.2017 07:00 18,7 C 62 % 1019,8 hPa 0,0 l/m 2,6 km/h W 11,3 C 18,7 C 1,4 km/h
01.10.2017 08:00 19,6 C 63 % 1019,3 hPa 0,0 l/m 0,0 km/h W-NW 12,4 C 19,6 C 0,0 km/h
01.10.2017 09:00 20,5 C 61 % 1019,1 hPa 0,0 l/m 0,0 km/h W 12,7 C 20,5 C 0,0 km/h
01.10.2017 10:00 21,3 C 58 % 1019,0 hPa 0,0 l/m 0,0 km/h S-SW 12,7 C 21,3 C 0,0 km/h
01.10.2017 11:00 22,8 C 53 % 1018,5 hPa 0,0 l/m 0,0 km/h W 12,7 C 22,8 C 0,0 km/h
01.10.2017 12:00 20,2 C 58 % 1018,2 hPa 0,0 l/m 0,0 km/h W 11,7 C 20,2 C 0,0 km/h
01.10.2017 13:00 16,1 C 68 % 1018,2 hPa 0,0 l/m 0,0 km/h W 10,2 C 16,1 C 0,0 km/h
01.10.2017 14:00 12,2 C 78 % 1018,6 hPa 0,0 l/m 0,0 km/h W 8,5 C 12,2 C 0,0 km/h
01.10.2017 15:00 10,8 C 81 % 1018,7 hPa 0,0 l/m 0,0 km/h W 7,7 C 10,8 C 0,0 km/h
01.10.2017 16:00 10,1 C 82 % 1018,8 hPa 0,0 l/m 0,0 km/h W 7,2 C 10,1 C 0,0 km/h
01.10.2017 17:00 10,1 C 83 % 1018,9 hPa 0,0 l/m 0,0 km/h S-SO 7,3 C 10,1 C 0,0 km/h
01.10.2017 18:00 10,5 C 83 % 1018,3 hPa 0,0 l/m 0,0 km/h O-SO 7,7 C 10,5 C 0,0 km/h
01.10.2017 19:00 10,6 C 82 % 1018,3 hPa 0,0 l/m 0,0 km/h SO 7,7 C 10,6 C 0,0 km/h
01.10.2017 20:00 10,0 C 82 % 1018,3 hPa 0,0 l/m 0,0 km/h N 7,1 C 10,0 C 0,0 km/h
Min-Datum _ 25.09.17 26.09.17 30.09.17 - 25.09.17 - 25.09.17 25.09.17 25.09.17
_ Min-Zeit 04:53 16:53 13:53 - 00:53 - 04:53 04:53 00:53
Minimum _ 5,9 C 40 % 1013,5 hPa - 0,0 km/h - 3,2 C 5,9 C 0,0 km/h
Max-Datum _ 29.09.17 25.09.17 28.09.17 30.09.17 30.09.17 - 29.09.17 29.09.17 30.09.17
_ Max-Zeit 15:53 00:53 09:53 17:53 16:53 - 13:53 15:53 16:53
Maximum _ 31,7 C 83 % 1022,2 hPa 1,6 l/m 31,8 km/h
N-NO
- 17,8 C 31,7 C 17,6 km/h
N-NO
Durchschnitt _ 16,1 C 72 % 1018,6 hPa #4,1 l/m 0,7 km/h O-SO 10,6 C 16,0 C 0,4 km/h
www.sexauwetter.de